Mount Selman, Texas
Current Conditions -  °F | °C
As of 12:53 PM on Sunday 21 Dec 2014 (Local Time) from KTYR Reporting Station
Overcast Overcast  
Wind Chill: 52°   Ceiling: 2300
Heat Index: 52°   Visibility: 10mi
Dew Point: 44°   Wind: 6mph
Humidity: 74%   Direction: 140°SE
Pressure: 30.01"   Gusts: NA
Location:  32.1219°N, 95.3574°W
Report Text: KTYR 211853Z 14005KT 10SM FEW013 OVC023 11/07 A3001 RMK AO2 SLP162 T01110067
Loading
Personal Weather Stations






























Interactive Weather Map New forecast layout! Learn more

10-Day Weather Forecast

Advertisements
Track Severe Weather on mobile